createdAt,value
2018-12-23T00:00:03.089Z,5.1
2018-12-23T00:05:11.262Z,5.1
2018-12-23T00:10:08.113Z,5
2018-12-23T00:15:08.036Z,5
2018-12-23T00:20:10.633Z,5
2018-12-23T00:25:05.361Z,5
2018-12-23T00:30:10.847Z,5
2018-12-23T00:35:08.159Z,5
2018-12-23T00:40:02.349Z,5
2018-12-23T00:45:08.171Z,4.9
2018-12-23T00:50:02.966Z,4.9
2018-12-23T00:55:10.356Z,5
2018-12-23T01:00:15.779Z,5
2018-12-23T01:05:05.470Z,4.9
2018-12-23T01:10:02.666Z,4.9
2018-12-23T01:15:02.447Z,4.9
2018-12-23T01:20:02.287Z,4.9
2018-12-23T01:25:08.123Z,4.9
2018-12-23T01:30:02.905Z,4.9
2018-12-23T01:35:05.185Z,4.9
2018-12-23T01:40:09.971Z,5
2018-12-23T01:45:03.136Z,5
2018-12-23T01:50:02.944Z,3.4
2018-12-23T01:55:02.714Z,5.1
2018-12-23T02:00:02.896Z,5.2
2018-12-23T02:05:05.211Z,5.2
2018-12-23T02:10:07.431Z,5.3
2018-12-23T02:15:05.709Z,5.3
2018-12-23T02:20:05.187Z,5.4
2018-12-23T02:25:17.611Z,5.4
2018-12-23T02:30:02.399Z,5.4
2018-12-23T02:35:05.725Z,5.4
2018-12-23T02:40:13.023Z,5.4
2018-12-23T02:45:05.178Z,5.4
2018-12-23T02:50:08.035Z,5.4
2018-12-23T02:55:10.296Z,5.4
2018-12-23T03:00:08.145Z,5.4
2018-12-23T03:05:02.847Z,5.3
2018-12-23T03:10:05.669Z,5.4
2018-12-23T03:15:10.499Z,5.4
2018-12-23T03:20:07.385Z,5.4
2018-12-23T03:25:10.674Z,5.3
2018-12-23T03:30:02.509Z,5.3
2018-12-23T03:35:02.293Z,5.3
2018-12-23T03:40:02.443Z,5.4
2018-12-23T03:45:02.262Z,5.4
2018-12-23T03:50:03.039Z,5.4
2018-12-23T03:55:02.830Z,5.5
2018-12-23T04:00:07.772Z,5.5
2018-12-23T04:05:02.549Z,5.4
2018-12-23T04:10:05.059Z,5.6
2018-12-23T04:15:02.303Z,5.6
2018-12-23T04:20:08.222Z,5.7
2018-12-23T04:25:05.436Z,5.7
2018-12-23T04:30:05.737Z,5.7
2018-12-23T04:35:05.543Z,5.7
2018-12-23T04:40:05.258Z,5.7
2018-12-23T04:45:02.487Z,5.7
2018-12-23T04:50:02.274Z,5.8
2018-12-23T04:55:13.193Z,5.8
2018-12-23T05:00:02.978Z,5.8
2018-12-23T05:05:05.331Z,5.9
2018-12-23T05:10:02.502Z,5.9
2018-12-23T05:15:02.283Z,5.9
2018-12-23T05:20:13.260Z,5.9
2018-12-23T05:25:07.921Z,6
2018-12-23T05:30:02.415Z,5.9
2018-12-23T05:35:03.236Z,6
2018-12-23T05:40:07.507Z,6
2018-12-23T05:45:02.271Z,6
2018-12-23T05:50:05.697Z,6.1
2018-12-23T05:55:10.632Z,6.1
2018-12-23T06:00:02.426Z,6.1
2018-12-23T06:05:04.757Z,6.1
2018-12-23T06:10:15.554Z,6.1
2018-12-23T06:15:02.726Z,6.2
2018-12-23T06:20:02.586Z,6.2
2018-12-23T06:25:15.162Z,6.2
2018-12-23T06:30:13.102Z,6.2
2018-12-23T06:35:05.218Z,6.3
2018-12-23T06:40:02.375Z,6.2
2018-12-23T06:45:23.397Z,6.2
2018-12-23T06:50:02.902Z,6.3
2018-12-23T06:55:05.229Z,6.2
2018-12-23T07:00:02.989Z,6.2
2018-12-23T07:05:02.805Z,6.2
2018-12-23T07:10:05.543Z,6.1
2018-12-23T07:15:05.308Z,6.1
2018-12-23T07:20:05.669Z,6.1
2018-12-23T07:25:02.922Z,6.1
2018-12-23T07:30:07.800Z,6.1
2018-12-23T07:35:05.038Z,6.1
2018-12-23T07:40:05.767Z,6.1
2018-12-23T07:45:13.145Z,6.1
2018-12-23T07:50:07.974Z,6.2
2018-12-23T07:55:02.730Z,6.2
2018-12-23T08:00:02.506Z,6.2
2018-12-23T08:05:07.347Z,6.3
2018-12-23T08:10:10.107Z,6.4
2018-12-23T08:15:02.326Z,6.4
2018-12-23T08:20:02.259Z,6.5
2018-12-23T08:25:03.152Z,6.5
2018-12-23T08:30:02.968Z,6.6
2018-12-23T08:35:02.807Z,6.6
2018-12-23T08:40:03.059Z,6.7
2018-12-23T08:45:07.907Z,6.7
2018-12-23T08:50:02.668Z,6.7
2018-12-23T08:55:05.014Z,6.8
2018-12-23T09:00:02.778Z,6.8
2018-12-23T09:05:05.089Z,7
2018-12-23T09:10:09.836Z,7
2018-12-23T09:15:03.035Z,7
2018-12-23T09:20:08.110Z,7.2
2018-12-23T09:25:02.874Z,7.2
2018-12-23T09:30:02.694Z,7.2
2018-12-23T09:35:02.508Z,7.3
2018-12-23T09:40:02.680Z,7.3
2018-12-23T09:45:02.447Z,7.3
2018-12-23T09:50:03.265Z,7.3
2018-12-23T09:55:10.587Z,7.4
2018-12-23T10:00:02.342Z,7.4
2018-12-23T10:05:05.675Z,7.6
2018-12-23T10:10:02.845Z,7.5
2018-12-23T10:15:12.801Z,7.6
2018-12-23T10:20:02.656Z,7.6
2018-12-23T10:25:04.944Z,7.6
2018-12-23T10:30:05.230Z,7.6
2018-12-23T10:35:02.520Z,7.6
2018-12-23T10:40:07.807Z,7.6
2018-12-23T10:45:02.475Z,7.7
2018-12-23T10:50:05.713Z,7.6
2018-12-23T10:55:02.958Z,7.6
2018-12-23T11:00:02.672Z,7.5
2018-12-23T11:05:04.970Z,7.5
2018-12-23T11:10:05.521Z,7.5
2018-12-23T11:15:02.753Z,7.5
2018-12-23T11:20:07.578Z,7.6
2018-12-23T11:25:07.295Z,7.6
2018-12-23T11:30:02.978Z,7.6
2018-12-23T11:35:02.701Z,7.7
2018-12-23T11:40:02.775Z,7.7
2018-12-23T11:45:05.000Z,7.7
2018-12-23T11:50:02.676Z,7.7
2018-12-23T11:55:02.392Z,7.7
2018-12-23T12:00:03.079Z,7.8
2018-12-23T12:05:02.840Z,7.7
2018-12-23T12:10:02.926Z,7.7
2018-12-23T12:15:07.773Z,7.6
2018-12-23T12:20:02.532Z,7.6
2018-12-23T12:25:04.772Z,7.6
2018-12-23T12:30:02.455Z,7.6
2018-12-23T12:35:04.729Z,7.5
2018-12-23T12:40:02.814Z,7.5
2018-12-23T12:45:03.102Z,7.5
2018-12-23T12:50:05.329Z,7.4
2018-12-23T12:55:02.504Z,7.4
2018-12-23T13:00:05.752Z,7.4
2018-12-23T13:05:02.932Z,7.3
2018-12-23T13:10:05.533Z,7.4
2018-12-23T13:15:02.733Z,7.4
2018-12-23T13:20:02.629Z,7.4
2018-12-23T13:25:07.394Z,7.4
2018-12-23T13:30:03.099Z,7.4
2018-12-23T13:35:02.850Z,7.4
2018-12-23T13:40:02.924Z,7.4
2018-12-23T13:45:02.665Z,7.4
2018-12-23T13:50:02.364Z,7.4
2018-12-23T13:55:08.162Z,7.4
2018-12-23T14:00:02.862Z,7.4
2018-12-23T14:05:02.590Z,7.4
2018-12-23T14:10:02.669Z,7.3
2018-12-23T14:15:04.940Z,7.3
2018-12-23T14:20:02.694Z,7.3
2018-12-23T14:25:02.425Z,7.3
2018-12-23T14:30:10.776Z,7.3
2018-12-23T14:35:07.932Z,7.3
2018-12-23T14:40:03.005Z,7.3
2018-12-23T14:45:02.748Z,7.3
2018-12-23T14:50:02.433Z,7.2
2018-12-23T14:55:05.706Z,7.2
2018-12-23T15:00:02.379Z,7.2
2018-12-23T15:05:03.099Z,7.2
2018-12-23T15:10:03.182Z,7.1
2018-12-23T15:15:07.927Z,7
2018-12-23T15:20:02.707Z,7
2018-12-23T15:25:07.561Z,6.9
2018-12-23T15:30:02.244Z,6.9
2018-12-23T15:35:08.015Z,6.9
2018-12-23T15:40:03.072Z,6.8
2018-12-23T15:45:07.866Z,6.8
2018-12-23T15:50:05.061Z,6.8
2018-12-23T15:55:02.275Z,6.8
2018-12-23T16:00:02.942Z,6.7
2018-12-23T16:05:05.204Z,6.7
2018-12-23T16:10:02.288Z,6.6
2018-12-23T16:15:03.215Z,6.6
2018-12-23T16:20:02.381Z,6.7
2018-12-23T16:25:02.435Z,6.6
2018-12-23T16:30:02.518Z,6.7
2018-12-23T16:35:05.022Z,6.7
2018-12-23T16:40:02.623Z,6.7
2018-12-23T16:45:02.631Z,6.7
2018-12-23T16:50:02.628Z,6.7
2018-12-23T16:55:02.689Z,6.7
2018-12-23T17:00:02.824Z,6.7
2018-12-23T17:05:02.822Z,6.7
2018-12-23T17:10:08.041Z,6.7
2018-12-23T17:15:02.509Z,6.7
2018-12-23T17:20:02.577Z,6.7
2018-12-23T17:25:02.681Z,6.7
2018-12-23T17:30:02.814Z,6.8
2018-12-23T17:35:02.834Z,6.7
2018-12-23T17:40:04.991Z,6.7
2018-12-23T17:45:02.514Z,6.7
2018-12-23T17:50:02.553Z,6.8
2018-12-23T17:55:02.699Z,6.7
2018-12-23T18:00:02.830Z,6.7
2018-12-23T18:05:05.389Z,6.7
2018-12-23T18:10:03.003Z,6.6
2018-12-23T18:15:02.330Z,6.6
2018-12-23T18:20:02.562Z,6.6
2018-12-23T18:25:02.684Z,6.6
2018-12-23T18:30:02.838Z,6.6
2018-12-23T18:35:02.861Z,6.6
2018-12-23T18:40:02.427Z,6.6
2018-12-23T18:45:02.494Z,6.6
2018-12-23T18:50:02.534Z,6.5
2018-12-23T18:55:05.185Z,6.5
2018-12-23T19:00:03.342Z,6.5
2018-12-23T19:05:04.980Z,6.6
2018-12-23T19:10:02.629Z,6.6
2018-12-23T19:15:02.651Z,6.6
2018-12-23T19:20:02.822Z,6.6
2018-12-23T19:25:02.757Z,6.5
2018-12-23T19:30:02.855Z,6.5
2018-12-23T19:35:02.909Z,6.5
2018-12-23T19:40:02.449Z,6.5
2018-12-23T19:45:02.529Z,6.4
2018-12-23T19:50:02.573Z,6.4
2018-12-23T19:55:02.641Z,6.4
2018-12-23T20:00:02.693Z,6.4
2018-12-23T20:05:02.862Z,6.4
2018-12-23T20:10:02.443Z,6.3
2018-12-23T20:15:02.523Z,6.3
2018-12-23T20:20:02.598Z,6.3
2018-12-23T20:25:02.685Z,6.2
2018-12-23T20:30:02.822Z,6.2
2018-12-23T20:35:02.846Z,6.2
2018-12-23T20:40:07.505Z,6.1
2018-12-23T20:45:02.490Z,6.1
2018-12-23T20:50:02.509Z,6.1
2018-12-23T20:55:02.637Z,6.1
2018-12-23T21:00:02.698Z,6
2018-12-23T21:05:02.800Z,6
2018-12-23T21:10:02.363Z,6
2018-12-23T21:15:02.475Z,6
2018-12-23T21:20:02.567Z,6
2018-12-23T21:25:10.925Z,6
2018-12-23T21:30:02.382Z,6
2018-12-23T21:35:02.448Z,6
2018-12-23T21:40:05.547Z,6
2018-12-23T21:45:03.059Z,6
2018-12-23T21:50:03.164Z,6
2018-12-23T21:55:03.144Z,6
2018-12-23T22:00:03.277Z,6
2018-12-23T22:05:02.409Z,6
2018-12-23T22:10:02.806Z,6
2018-12-23T22:15:03.010Z,6
2018-12-23T22:20:03.118Z,5.9
2018-12-23T22:25:03.156Z,6
2018-12-23T22:30:03.292Z,5.9
2018-12-23T22:35:02.352Z,5.9
2018-12-23T22:40:02.796Z,5.8
2018-12-23T22:45:02.991Z,5.8
2018-12-23T22:50:03.087Z,5.8
2018-12-23T22:55:03.134Z,5.8
2018-12-23T23:00:03.243Z,5.8
2018-12-23T23:05:03.252Z,5.7
2018-12-23T23:10:02.743Z,5.8
2018-12-23T23:15:02.894Z,5.8
2018-12-23T23:20:03.089Z,5.7
2018-12-23T23:25:05.636Z,5.8
2018-12-23T23:30:02.650Z,5.7
2018-12-23T23:35:02.792Z,5.7
2018-12-23T23:40:02.384Z,5.7
2018-12-23T23:45:02.515Z,5.7
2018-12-23T23:50:02.549Z,5.8
2018-12-23T23:55:02.654Z,5.8
